Time;durP1;ratioP1;P1;durP2;ratioP2;P2;SDS_P1;SDS_P2;PMS_P1;PMS_P2;Temp;Humidity;BMP_temperature;BMP_pressure;BME280_temperature;BME280_humidity;BME280_pressure;Samples;Min_cycle;Max_cycle;Signal;HPM_P1;HPM_P2
2022/04/26 03:37:05;;;;;;;11.05;7.13;;;7.50;99.90;;;;;;5069663;28;20048;-79
2022/04/26 03:39:32;;;;;;;10.88;6.15;;;7.50;99.90;;;;;;5078563;28;20048;-78
2022/04/26 03:41:58;;;;;;;14.55;6.18;;;7.50;99.90;;;;;;5068718;28;20048;-77
2022/04/26 03:44:24;;;;;;;10.77;6.53;;;7.50;99.90;;;;;;5056853;28;20108;-77
2022/04/26 03:46:50;;;;;;;12.93;6.50;;;7.40;99.90;;;;;;5080391;28;20075;-78
2022/04/26 03:49:15;;;;;;;12.35;6.82;;;7.40;99.90;;;;;;5080752;28;20048;-78
2022/04/26 03:51:41;;;;;;;12.10;6.78;;;7.40;99.90;;;;;;5079391;28;20087;-79
2022/04/26 03:54:07;;;;;;;12.75;6.72;;;7.40;99.90;;;;;;5064178;28;20047;-78
2022/04/26 03:56:32;;;;;;;11.40;6.38;;;7.30;99.90;;;;;;5062227;28;20044;-77
2022/04/26 03:58:58;;;;;;;12.02;6.25;;;7.30;99.90;;;;;;5064247;28;20060;-76
2022/04/26 04:01:24;;;;;;;11.00;7.28;;;7.30;99.90;;;;;;5058993;28;20052;-79
2022/04/26 04:03:50;;;;;;;11.48;6.60;;;7.30;99.90;;;;;;5080432;28;20091;-74
2022/04/26 04:06:15;;;;;;;12.55;6.65;;;7.30;99.90;;;;;;5079717;28;20123;-78
2022/04/26 04:08:41;;;;;;;13.15;7.07;;;7.30;99.90;;;;;;5045730;28;20058;-79
2022/04/26 04:11:07;;;;;;;8.95;6.40;;;7.30;99.90;;;;;;5063793;28;20049;-78
2022/04/26 04:13:33;;;;;;;11.93;6.07;;;7.30;99.90;;;;;;5078364;28;20055;-78
2022/04/26 04:15:58;;;;;;;11.85;7.07;;;7.20;99.90;;;;;;5089592;28;20075;-78
2022/04/26 04:21:08;;;;;;;11.70;6.18;;;7.20;99.90;;;;;;5073107;28;20144;-78
2022/04/26 04:23:40;;;;;;;16.52;7.88;;;7.30;99.90;;;;;;5069692;28;20083;-78
2022/04/26 04:26:07;;;;;;;13.68;7.45;;;7.30;99.90;;;;;;5045360;28;20053;-78
2022/04/26 04:28:34;;;;;;;14.00;6.80;;;7.30;99.90;;;;;;5083368;28;20520;-79
2022/04/26 04:31:00;;;;;;;12.35;6.20;;;7.30;99.90;;;;;;5078022;28;20516;-77
2022/04/26 04:33:27;;;;;;;10.55;6.03;;;7.40;99.90;;;;;;5098110;28;20052;-79
2022/04/26 04:35:53;;;;;;;15.32;5.93;;;7.40;99.90;;;;;;5087847;28;20052;-78
2022/04/26 04:38:18;;;;;;;10.75;6.72;;;7.50;99.90;;;;;;5066212;28;20045;-77
2022/04/26 04:40:44;;;;;;;13.48;5.70;;;7.50;99.90;;;;;;5063096;28;20114;-78
2022/04/26 04:43:11;;;;;;;11.48;5.65;;;7.50;99.90;;;;;;5070359;28;20053;-80
2022/04/26 04:45:38;;;;;;;13.50;6.18;;;7.50;99.90;;;;;;5080172;28;20055;-80
2022/04/26 04:48:05;;;;;;;11.98;5.88;;;7.50;99.90;;;;;;5075747;28;20051;-77
2022/04/26 04:50:32;;;;;;;11.90;5.60;;;7.50;99.90;;;;;;5091991;28;20044;-76
2022/04/26 04:52:58;;;;;;;8.90;5.43;;;7.50;99.90;;;;;;5061653;28;20048;-78
2022/04/26 04:55:24;;;;;;;11.82;5.28;;;7.50;99.90;;;;;;5092186;28;20040;-78
2022/04/26 04:57:49;;;;;;;9.32;5.50;;;7.50;99.90;;;;;;5082658;28;20100;-77
2022/04/26 05:00:16;;;;;;;13.00;5.32;;;7.60;99.90;;;;;;5091507;28;20040;-78
2022/04/26 05:02:41;;;;;;;9.90;4.28;;;7.60;99.90;;;;;;5079766;28;20048;-77
2022/04/26 05:05:07;;;;;;;11.32;4.70;;;7.60;99.90;;;;;;5077341;28;20060;-79
2022/04/26 05:07:33;;;;;;;10.85;5.10;;;7.60;99.90;;;;;;5079603;28;20045;-79
2022/04/26 05:09:59;;;;;;;9.95;5.43;;;7.60;99.90;;;;;;5076927;28;20082;-79
2022/04/26 05:12:25;;;;;;;12.38;5.40;;;7.70;99.90;;;;;;5078768;28;20104;-77
2022/04/26 05:14:50;;;;;;;9.45;4.60;;;7.70;99.90;;;;;;5078626;28;20129;-75
2022/04/26 05:17:16;;;;;;;7.72;4.28;;;7.70;99.90;;;;;;5071619;28;20078;-77
2022/04/26 05:19:42;;;;;;;8.63;4.45;;;7.70;99.90;;;;;;5085015;28;20063;-77
2022/04/26 05:22:11;;;;;;;10.70;5.00;;;7.70;99.90;;;;;;5075211;28;20108;-78
2022/04/26 05:24:58;;;;;;;7.35;4.90;;;7.70;99.90;;;;;;5090480;28;20040;-77
2022/04/26 05:27:31;;;;;;;9.82;4.70;;;7.80;99.90;;;;;;5072080;28;20052;-77
2022/04/26 05:29:57;;;;;;;11.02;5.32;;;7.70;99.90;;;;;;5091580;28;20043;-79
2022/04/26 05:32:28;;;;;;;11.18;4.57;;;7.80;99.90;;;;;;5077837;28;20040;-77
2022/04/26 05:35:02;;;;;;;8.52;5.07;;;7.80;99.90;;;;;;5080406;28;20045;-79
2022/04/26 05:37:30;;;;;;;8.60;4.90;;;7.80;99.90;;;;;;5078763;28;20040;-78
2022/04/26 05:39:57;;;;;;;11.30;4.70;;;7.70;99.90;;;;;;5076293;28;20044;-78
2022/04/26 05:42:23;;;;;;;9.00;4.25;;;7.80;99.90;;;;;;5062085;28;20089;-78
2022/04/26 05:44:48;;;;;;;6.65;4.53;;;7.80;99.90;;;;;;5061197;28;20040;-77
2022/04/26 05:47:14;;;;;;;8.80;4.20;;;7.90;99.90;;;;;;5061043;28;20067;-79
2022/04/26 05:49:40;;;;;;;9.52;4.53;;;7.90;99.90;;;;;;5091452;28;20156;-78
2022/04/26 05:52:06;;;;;;;10.35;4.65;;;7.90;99.90;;;;;;5061508;28;20086;-77
2022/04/26 05:54:32;;;;;;;8.95;4.85;;;7.90;99.90;;;;;;5049999;28;20044;-78
2022/04/26 05:56:58;;;;;;;11.90;4.78;;;7.90;99.90;;;;;;5067767;28;20056;-79
2022/04/26 05:59:25;;;;;;;10.10;4.68;;;7.90;99.90;;;;;;5078820;28;20048;-78
2022/04/26 06:01:51;;;;;;;10.25;4.70;;;7.90;99.90;;;;;;5073861;28;20071;-78
2022/04/26 06:04:18;;;;;;;9.82;4.65;;;7.90;99.90;;;;;;5077360;28;20118;-78
2022/04/26 06:06:44;;;;;;;8.90;4.25;;;8.00;99.90;;;;;;5078816;28;20056;-78
2022/04/26 06:09:13;;;;;;;8.55;4.50;;;8.00;99.90;;;;;;5076052;28;20060;-79
2022/04/26 06:11:39;;;;;;;7.57;5.20;;;8.00;99.90;;;;;;5089683;28;20489;-79
2022/04/26 06:14:05;;;;;;;9.00;4.60;;;8.10;99.90;;;;;;5079797;28;20047;-79
2022/04/26 06:16:31;;;;;;;10.18;4.85;;;8.10;99.90;;;;;;5089906;28;20049;-80
2022/04/26 06:18:57;;;;;;;8.57;4.80;;;8.10;99.90;;;;;;5077357;28;20373;-79
2022/04/26 06:21:23;;;;;;;10.50;4.50;;;8.20;99.90;;;;;;5060575;28;20376;-77
2022/04/26 06:23:48;;;;;;;10.20;4.47;;;8.30;99.90;;;;;;5089236;28;20110;-79
2022/04/26 06:26:14;;;;;;;10.90;4.57;;;8.30;99.90;;;;;;5079023;28;20082;-79
2022/04/26 06:28:40;;;;;;;9.38;3.88;;;8.40;99.90;;;;;;5081941;28;20044;-77
2022/04/26 06:31:05;;;;;;;8.85;4.03;;;8.40;99.90;;;;;;5074801;28;20071;-78
2022/04/26 06:33:33;;;;;;;7.88;4.13;;;8.50;99.90;;;;;;5098235;28;20036;-79
2022/04/26 06:35:58;;;;;;;8.60;4.20;;;8.60;99.90;;;;;;5076824;28;20056;-78
2022/04/26 06:38:25;;;;;;;7.53;4.75;;;8.60;99.90;;;;;;5082030;28;20044;-78
2022/04/26 06:40:52;;;;;;;7.43;3.85;;;8.60;99.90;;;;;;5090641;28;20075;-81
2022/04/26 06:43:18;;;;;;;8.80;4.65;;;8.60;99.90;;;;;;5080116;28;20407;-80
2022/04/26 06:45:46;;;;;;;8.65;4.47;;;8.60;99.90;;;;;;5084347;28;20066;-78
2022/04/26 06:48:13;;;;;;;10.48;4.18;;;8.60;99.90;;;;;;5064574;28;20048;-78
2022/04/26 06:50:39;;;;;;;9.57;3.78;;;8.70;99.90;;;;;;5081961;28;20565;-77
2022/04/26 06:53:05;;;;;;;9.07;4.40;;;8.70;99.90;;;;;;5080310;28;20044;-78
2022/04/26 06:55:31;;;;;;;7.22;4.43;;;8.70;99.90;;;;;;5079237;28;20040;-77
2022/04/26 06:57:57;;;;;;;9.52;3.97;;;8.80;99.90;;;;;;5081527;28;20047;-77
2022/04/26 07:00:23;;;;;;;12.35;4.35;;;8.80;99.90;;;;;;5057578;28;20040;-78
2022/04/26 07:02:49;;;;;;;11.05;4.75;;;8.70;99.90;;;;;;5061502;28;20068;-80
2022/04/26 07:05:15;;;;;;;9.75;4.78;;;8.70;99.90;;;;;;5061948;28;20056;-79
2022/04/26 07:07:42;;;;;;;7.13;3.95;;;8.60;99.90;;;;;;5075590;28;20110;-78
2022/04/26 07:10:09;;;;;;;11.00;4.38;;;8.70;99.90;;;;;;5068715;28;20057;-78
2022/04/26 07:12:35;;;;;;;9.63;4.95;;;8.70;99.90;;;;;;5080770;28;20036;-80
2022/04/26 07:15:00;;;;;;;6.43;4.43;;;8.80;99.90;;;;;;5081296;28;20070;-77
2022/04/26 07:17:26;;;;;;;8.05;4.95;;;8.80;99.90;;;;;;5082827;28;20050;-78
2022/04/26 07:19:52;;;;;;;8.52;4.30;;;8.90;99.90;;;;;;5080701;28;20063;-81
2022/04/26 07:22:18;;;;;;;7.30;4.90;;;9.00;99.90;;;;;;5076869;28;20047;-78
2022/04/26 07:24:44;;;;;;;7.55;4.43;;;9.10;99.90;;;;;;5087125;28;20045;-78
2022/04/26 07:27:11;;;;;;;6.97;4.70;;;9.20;99.90;;;;;;5047495;28;20114;-79
2022/04/26 07:29:41;;;;;;;6.80;4.45;;;9.30;99.90;;;;;;5084387;28;20040;-78
2022/04/26 07:32:08;;;;;;;8.93;4.53;;;9.50;99.90;;;;;;5080168;28;20055;-78
2022/04/26 07:34:34;;;;;;;11.73;4.80;;;9.60;99.90;;;;;;5082894;28;20457;-79
2022/04/26 07:37:02;;;;;;;8.25;4.20;;;9.70;99.90;;;;;;5082934;28;20048;-79
2022/04/26 07:39:29;;;;;;;7.38;3.92;;;9.70;99.90;;;;;;5061648;28;20044;-79
2022/04/26 07:41:56;;;;;;;9.90;4.00;;;9.70;99.90;;;;;;5080333;28;20044;-77
2022/04/26 07:44:22;;;;;;;13.27;4.75;;;9.80;99.90;;;;;;5078665;28;20058;-78
2022/04/26 07:46:49;;;;;;;7.57;4.30;;;9.80;99.90;;;;;;5046954;28;20139;-82
2022/04/26 07:49:16;;;;;;;7.75;4.05;;;9.90;99.90;;;;;;5080325;28;20048;-79
2022/04/26 07:51:43;;;;;;;7.95;4.28;;;9.90;99.90;;;;;;5061450;28;20452;-79
2022/04/26 07:54:10;;;;;;;8.43;4.03;;;9.90;99.90;;;;;;5081821;28;20083;-78
2022/04/26 07:56:35;;;;;;;7.95;3.92;;;9.90;99.90;;;;;;5076778;28;20037;-78
2022/04/26 07:59:03;;;;;;;8.57;4.63;;;9.90;99.90;;;;;;5096392;28;20074;-78
2022/04/26 08:01:30;;;;;;;10.18;4.38;;;9.90;99.90;;;;;;5067252;28;20045;-78
2022/04/26 08:03:57;;;;;;;8.30;4.35;;;9.90;99.90;;;;;;5079723;28;20040;-78
2022/04/26 08:06:23;;;;;;;7.57;4.18;;;9.90;99.90;;;;;;5061144;28;20131;-77
2022/04/26 08:08:48;;;;;;;8.10;4.75;;;10.00;99.90;;;;;;5079312;28;20066;-77
2022/04/26 08:11:14;;;;;;;6.07;4.43;;;10.00;99.90;;;;;;5068479;28;20040;-84
2022/04/26 08:13:40;;;;;;;9.82;4.38;;;10.10;99.90;;;;;;5050102;28;20037;-78
2022/04/26 08:16:07;;;;;;;8.32;4.00;;;10.20;99.90;;;;;;5046991;28;20109;-77
2022/04/26 08:18:33;;;;;;;4.53;3.83;;;10.20;99.90;;;;;;5073930;28;20454;-76
2022/04/26 08:21:05;;;;;;;9.13;3.80;;;10.40;99.90;;;;;;5079441;28;20052;-77
2022/04/26 08:23:31;;;;;;;6.43;4.00;;;10.40;99.90;;;;;;5082068;28;20051;-77
2022/04/26 08:28:43;;;;;;;4.65;3.50;;;10.70;99.90;;;;;;5081368;28;20624;-76
2022/04/26 08:31:09;;;;;;;8.80;4.47;;;10.90;99.90;;;;;;5083280;28;20128;-78
2022/04/26 08:33:35;;;;;;;9.98;4.50;;;11.00;99.90;;;;;;5046805;28;20113;-76
2022/04/26 08:36:01;;;;;;;6.72;4.43;;;11.10;99.90;;;;;;5077627;28;20538;-78
2022/04/26 08:38:27;;;;;;;6.78;3.72;;;11.30;99.90;;;;;;5077884;28;20089;-79
2022/04/26 08:40:52;;;;;;;7.80;3.97;;;11.40;99.90;;;;;;5070952;28;20048;-78
2022/04/26 08:43:18;;;;;;;8.07;3.70;;;11.40;99.90;;;;;;5084729;28;20133;-82
2022/04/26 08:45:46;;;;;;;6.20;3.97;;;11.40;99.90;;;;;;5062533;28;20128;-77
2022/04/26 08:50:59;;;;;;;5.55;3.95;;;11.50;99.90;;;;;;5075211;28;20048;-76
2022/04/26 08:53:26;;;;;;;6.97;3.80;;;11.60;99.90;;;;;;5045655;28;20433;-77
2022/04/26 08:55:57;;;;;;;9.07;4.10;;;11.70;99.90;;;;;;5079690;28;20407;-78
2022/04/26 08:58:28;;;;;;;6.32;3.38;;;11.80;99.90;;;;;;5078745;28;20039;-79
2022/04/26 09:01:18;;;;;;;8.45;4.10;;;11.80;99.90;;;;;;5076887;28;20076;-78
2022/04/26 09:03:57;;;;;;;4.55;3.42;;;11.80;99.90;;;;;;5061377;28;20056;-77
2022/04/26 09:06:36;;;;;;;7.82;3.70;;;11.60;99.90;;;;;;5078444;28;20105;-78
2022/04/26 09:09:21;;;;;;;5.82;3.35;;;11.50;99.90;;;;;;5076792;28;20059;-80
2022/04/26 09:11:47;;;;;;;6.38;3.70;;;11.40;99.90;;;;;;5062249;28;20182;-78
2022/04/26 09:14:38;;;;;;;4.85;3.20;;;11.40;99.90;;;;;;5077102;28;20106;-79
2022/04/26 09:17:09;;;;;;;6.85;3.65;;;11.50;99.90;;;;;;5096573;28;20059;-80
2022/04/26 09:19:48;;;;;;;6.80;3.70;;;11.70;99.90;;;;;;5098923;28;20039;-77
2022/04/26 09:22:20;;;;;;;5.13;3.65;;;11.70;99.90;;;;;;5094835;28;20044;-76
2022/04/26 09:25:02;;;;;;;5.57;3.30;;;12.00;99.90;;;;;;5097686;28;20187;-75
2022/04/26 09:27:29;;;;;;;5.88;3.20;;;12.20;99.90;;;;;;5089418;28;20075;-79
2022/04/26 09:29:55;;;;;;;5.38;3.10;;;12.30;99.90;;;;;;5061129;28;20074;-79
2022/04/26 09:32:23;;;;;;;4.22;3.00;;;12.50;99.90;;;;;;5078701;28;20455;-78
2022/04/26 09:34:49;;;;;;;5.13;3.10;;;12.70;99.90;;;;;;5077249;28;20084;-80
2022/04/26 09:37:16;;;;;;;5.88;3.13;;;12.90;99.90;;;;;;5078730;28;20051;-76
2022/04/26 09:40:00;;;;;;;6.25;3.17;;;12.70;99.90;;;;;;5075993;28;20052;-76
2022/04/26 09:42:34;;;;;;;6.13;2.90;;;13.10;99.90;;;;;;5061542;28;20044;-76
2022/04/26 09:45:17;;;;;;;6.22;3.25;;;13.30;99.90;;;;;;5078349;28;20142;-76
2022/04/26 09:47:44;;;;;;;5.40;3.15;;;13.30;99.90;;;;;;5060030;28;20063;-77
2022/04/26 09:50:14;;;;;;;7.82;3.25;;;13.30;99.90;;;;;;5061775;28;20048;-76
2022/04/26 09:52:41;;;;;;;6.47;3.30;;;13.30;99.90;;;;;;5042968;28;20071;-77
2022/04/26 09:55:08;;;;;;;6.13;3.45;;;13.30;99.90;;;;;;5078342;28;20059;-77
2022/04/26 09:57:36;;;;;;;6.15;3.42;;;13.30;99.90;;;;;;5077493;28;20055;-80
2022/04/26 10:00:08;;;;;;;6.45;2.90;;;13.40;99.90;;;;;;5060405;28;20056;-82
2022/04/26 10:02:37;;;;;;;5.95;3.00;;;13.30;99.90;;;;;;5078462;28;20101;-79
2022/04/26 10:05:06;;;;;;;8.05;3.00;;;13.20;99.90;;;;;;5071723;28;20098;-77
2022/04/26 10:07:45;;;;;;;4.32;2.70;;;13.00;99.90;;;;;;5041841;28;20056;-76
2022/04/26 10:10:11;;;;;;;5.03;2.88;;;13.00;99.90;;;;;;5058613;28;20053;-75
2022/04/26 10:12:37;;;;;;;5.15;2.90;;;13.10;99.90;;;;;;5060668;28;20065;-76
2022/04/26 10:15:04;;;;;;;7.63;2.97;;;13.30;99.90;;;;;;5061163;28;20076;-79
2022/04/26 10:17:32;;;;;;;5.35;2.97;;;13.40;99.90;;;;;;5059813;28;20051;-75
2022/04/26 10:20:02;;;;;;;5.68;3.42;;;13.60;99.90;;;;;;5061547;28;20056;-78
2022/04/26 10:22:53;;;;;;;4.80;3.17;;;13.80;99.90;;;;;;5043154;28;20048;-76
2022/04/26 10:25:21;;;;;;;7.75;2.97;;;14.00;99.90;;;;;;5057768;28;20104;-78
2022/04/26 10:28:23;;;;;;;9.32;3.35;;;13.90;99.90;;;;;;5051770;28;20111;-75
2022/04/26 10:30:56;;;;;;;4.28;2.70;;;13.70;99.90;;;;;;5059459;28;20048;-76
2022/04/26 10:33:38;;;;;;;5.72;2.92;;;13.40;99.90;;;;;;5078099;28;20052;-76
2022/04/26 10:36:33;;;;;;;7.70;2.88;;;13.20;99.90;;;;;;5043962;28;20780;-77
2022/04/26 10:39:08;;;;;;;5.53;2.45;;;13.30;99.90;;;;;;5059111;28;20059;-77
2022/04/26 10:41:37;;;;;;;6.90;2.65;;;13.60;99.90;;;;;;5077524;28;20581;-77
2022/04/26 10:46:41;;;;;;;6.80;2.85;;;13.90;99.90;;;;;;5077662;28;20082;-76
2022/04/26 10:49:38;;;;;;;5.35;3.25;;;13.80;99.90;;;;;;5077226;28;20045;-75
2022/04/26 10:52:19;;;;;;;5.83;2.97;;;13.90;99.90;;;;;;5072100;28;20125;-77
2022/04/26 10:55:03;;;;;;;6.55;3.00;;;13.90;99.90;;;;;;5078217;28;20053;-77
2022/04/26 10:57:33;;;;;;;3.95;3.05;;;14.00;99.90;;;;;;5076530;28;20052;-77
2022/04/26 11:00:02;;;;;;;5.88;3.08;;;14.00;99.90;;;;;;5076680;28;20112;-77
2022/04/26 11:02:35;;;;;;;6.40;3.30;;;14.20;99.90;;;;;;5077871;28;20323;-77
2022/04/26 11:05:08;;;;;;;8.68;3.10;;;14.30;99.90;;;;;;5058418;28;20053;-78
2022/04/26 11:07:34;;;;;;;6.65;3.05;;;14.10;99.90;;;;;;5061277;28;20063;-77
2022/04/26 11:10:01;;;;;;;6.05;2.90;;;13.90;99.90;;;;;;5042538;28;20044;-79
2022/04/26 11:12:28;;;;;;;6.70;3.33;;;13.90;99.90;;;;;;5076871;28;20044;-78
2022/04/26 11:14:57;;;;;;;5.90;2.97;;;13.70;99.90;;;;;;5060990;28;20469;-77
2022/04/26 11:17:22;;;;;;;7.28;3.38;;;13.50;99.90;;;;;;5079231;28;20089;-81
2022/04/26 11:19:50;;;;;;;4.93;3.25;;;13.50;99.90;;;;;;5055566;28;20049;-79
2022/04/26 11:22:18;;;;;;;4.18;3.05;;;13.60;99.90;;;;;;5038920;28;20052;-79
2022/04/26 11:30:35;;;;;;;6.45;2.97;;;14.20;99.90;;;;;;5067383;28;20053;-79
2022/04/26 11:33:25;;;;;;;4.88;2.65;;;14.30;99.90;;;;;;5080799;28;20051;-78
2022/04/26 11:36:02;;;;;;;7.68;3.13;;;14.50;99.90;;;;;;5079560;28;20076;-79
2022/04/26 11:38:28;;;;;;;6.95;3.08;;;14.70;99.90;;;;;;5063001;28;20052;-79
2022/04/26 11:41:03;;;;;;;4.35;2.90;;;15.00;99.90;;;;;;5063720;28;20075;-80
2022/04/26 11:43:31;;;;;;;5.90;3.08;;;15.10;99.90;;;;;;5061848;28;20139;-83
2022/04/26 11:45:58;;;;;;;4.72;2.78;;;15.10;99.90;;;;;;5064261;28;20091;-81
2022/04/26 11:48:29;;;;;;;6.88;3.20;;;14.90;99.90;;;;;;5061592;28;20066;-80
2022/04/26 11:50:58;;;;;;;4.25;3.00;;;15.00;99.90;;;;;;5079722;28;20120;-79
2022/04/26 11:53:28;;;;;;;4.72;3.10;;;15.00;99.90;;;;;;5063182;28;20045;-78
2022/04/26 11:55:56;;;;;;;5.60;3.15;;;15.00;99.90;;;;;;5078468;28;20052;-78
2022/04/26 11:58:32;;;;;;;4.97;3.00;;;15.00;99.90;;;;;;5080381;28;20044;-81
2022/04/26 12:01:12;;;;;;;6.40;3.17;;;15.10;99.90;;;;;;5078510;28;20060;-79
2022/04/26 12:03:53;;;;;;;7.80;3.22;;;15.30;99.90;;;;;;5063236;28;20059;-79
2022/04/26 12:06:24;;;;;;;7.50;3.40;;;15.40;99.90;;;;;;5063000;28;20098;-80
2022/04/26 12:08:54;;;;;;;6.72;3.15;;;15.30;99.90;;;;;;5078028;28;20056;-79
2022/04/26 12:11:26;;;;;;;5.03;3.10;;;15.30;99.90;;;;;;5063535;28;20037;-79
2022/04/26 12:14:01;;;;;;;6.38;2.85;;;15.30;99.90;;;;;;5077916;28;20083;-81
2022/04/26 12:16:28;;;;;;;5.03;3.20;;;15.30;99.90;;;;;;5080138;28;20568;-80
2022/04/26 12:18:56;;;;;;;8.15;3.17;;;15.40;99.90;;;;;;5078966;28;20040;-80
2022/04/26 12:21:24;;;;;;;5.20;3.28;;;15.50;99.90;;;;;;5079396;28;20105;-81
2022/04/26 12:24:10;;;;;;;5.30;3.20;;;15.80;99.90;;;;;;5090626;28;20040;-81
2022/04/26 12:26:35;;;;;;;7.37;3.53;;;15.70;99.90;;;;;;5079990;28;20458;-81
2022/04/26 12:29:01;;;;;;;5.30;3.33;;;15.60;99.90;;;;;;5063186;28;20279;-80
2022/04/26 12:31:30;;;;;;;5.10;2.90;;;15.30;99.90;;;;;;5045114;28;20040;-77
2022/04/26 12:34:13;;;;;;;4.40;3.20;;;15.30;99.90;;;;;;5062840;28;20105;-77
2022/04/26 12:37:07;;;;;;;4.60;3.00;;;15.50;99.90;;;;;;5063286;28;20518;-77
2022/04/26 12:39:45;;;;;;;4.65;3.03;;;15.70;99.90;;;;;;5077110;28;20052;-76
2022/04/26 12:42:13;;;;;;;7.15;2.97;;;15.90;99.90;;;;;;5079624;28;20443;-77
2022/04/26 12:44:56;;;;;;;4.68;2.78;;;15.80;99.90;;;;;;5078664;28;20087;-76
2022/04/26 12:50:29;;;;;;;5.78;3.10;;;15.30;99.90;;;;;;5079490;28;20052;-78
2022/04/26 12:53:04;;;;;;;9.00;3.28;;;15.00;99.90;;;;;;5061019;28;20101;-78
2022/04/26 12:55:36;;;;;;;4.83;3.10;;;15.00;99.90;;;;;;5078970;28;20045;-79
2022/04/26 12:58:04;;;;;;;7.50;3.25;;;15.40;99.90;;;;;;5079471;28;20117;-77
2022/04/26 13:00:31;;;;;;;4.85;3.10;;;16.10;99.90;;;;;;5077710;28;20124;-74
2022/04/26 13:03:00;;;;;;;5.18;2.90;;;16.70;99.90;;;;;;5079550;28;20051;-76
2022/04/26 13:05:27;;;;;;;7.10;3.60;;;17.20;99.90;;;;;;5077205;28;20060;-79
2022/04/26 13:07:53;;;;;;;6.57;3.25;;;17.40;99.90;;;;;;5042269;28;20075;-78
2022/04/26 13:10:20;;;;;;;6.05;3.03;;;17.10;99.90;;;;;;5077517;28;20075;-79
2022/04/26 13:12:46;;;;;;;6.88;3.20;;;16.80;99.90;;;;;;5078010;28;20040;-78
2022/04/26 13:15:15;;;;;;;5.25;2.90;;;16.30;99.90;;;;;;5081031;28;20048;-81
2022/04/26 13:17:42;;;;;;;5.70;3.35;;;15.90;99.90;;;;;;5097368;28;20055;-77
2022/04/26 13:20:10;;;;;;;6.47;2.70;;;15.70;99.90;;;;;;5082170;28;20032;-78
2022/04/26 13:22:37;;;;;;;5.00;2.80;;;15.80;99.90;;;;;;5070682;28;20140;-77
2022/04/26 13:25:04;;;;;;;5.53;2.72;;;15.90;99.90;;;;;;5073272;28;20484;-78
2022/04/26 13:27:31;;;;;;;6.75;2.78;;;15.80;99.90;;;;;;5061334;28;20173;-78
2022/04/26 13:29:58;;;;;;;7.65;2.67;;;15.80;99.90;;;;;;5077000;28;20112;-77
2022/04/26 13:32:24;;;;;;;6.53;2.80;;;15.60;99.90;;;;;;5045611;28;20045;-78
2022/04/26 13:34:51;;;;;;;4.18;2.65;;;15.40;99.90;;;;;;5059743;28;20047;-77
2022/04/26 13:37:18;;;;;;;3.88;2.70;;;15.30;99.90;;;;;;5078170;28;20063;-78
2022/04/26 13:39:45;;;;;;;5.03;3.00;;;15.20;99.90;;;;;;5059366;28;20037;-76
2022/04/26 13:42:12;;;;;;;4.32;2.85;;;15.30;99.90;;;;;;5078107;28;20063;-78
2022/04/26 13:44:38;;;;;;;5.07;2.80;;;15.70;99.90;;;;;;5077420;28;20508;-77
2022/04/26 13:47:06;;;;;;;4.40;2.47;;;16.20;99.90;;;;;;5077611;28;20057;-78
2022/04/26 13:49:34;;;;;;;6.50;2.40;;;16.90;99.90;;;;;;5078111;28;20127;-77
2022/04/26 13:52:00;;;;;;;4.78;2.30;;;17.30;99.90;;;;;;5076046;28;20049;-75
2022/04/26 13:54:27;;;;;;;6.18;2.75;;;17.50;99.90;;;;;;5078881;28;20523;-78
2022/04/26 13:56:56;;;;;;;4.28;2.35;;;17.70;99.90;;;;;;5076477;28;20044;-77
2022/04/26 13:59:23;;;;;;;5.65;2.47;;;17.60;99.90;;;;;;5077747;28;20041;-78
2022/04/26 14:01:50;;;;;;;6.13;2.58;;;17.50;99.90;;;;;;5078717;28;20056;-77
2022/04/26 14:04:17;;;;;;;4.13;2.20;;;17.90;99.90;;;;;;5043561;28;20399;-79
2022/04/26 14:06:43;;;;;;;9.75;3.03;;;17.80;99.90;;;;;;5077526;28;20060;-77
2022/04/26 14:09:09;;;;;;;6.47;2.40;;;17.60;99.90;;;;;;5073016;28;20078;-76
2022/04/26 14:11:34;;;;;;;6.63;2.50;;;17.20;99.90;;;;;;5075868;28;20106;-77
2022/04/26 14:22:13;;;;;;;7.93;2.30;;;16.40;99.90;;;;;;5075912;28;20048;-77
2022/04/26 14:24:39;;;;;;;3.90;2.10;;;16.40;99.90;;;;;;5095353;28;20127;-78
2022/04/26 14:27:05;;;;;;;4.20;2.25;;;16.80;99.90;;;;;;5074797;28;20102;-80
2022/04/26 14:29:32;;;;;;;4.65;2.10;;;17.30;99.90;;;;;;5077098;28;20067;-80
2022/04/26 14:31:57;;;;;;;4.93;2.22;;;17.30;99.90;;;;;;5077450;28;20053;-80
2022/04/26 14:34:23;;;;;;;4.03;1.95;;;17.50;99.90;;;;;;5059467;28;20357;-79
2022/04/26 14:36:49;;;;;;;4.03;2.00;;;17.70;99.90;;;;;;5077439;28;20154;-80
2022/04/26 14:39:15;;;;;;;2.83;1.48;;;17.80;99.90;;;;;;5076873;28;20083;-81
2022/04/26 14:41:42;;;;;;;3.72;2.10;;;18.10;99.90;;;;;;5078298;28;20086;-81
2022/04/26 14:44:08;;;;;;;3.78;1.77;;;18.10;99.90;;;;;;5075419;28;20136;-79
2022/04/26 14:46:34;;;;;;;4.40;1.90;;;18.10;99.90;;;;;;5061025;28;20056;-80
2022/04/26 14:49:00;;;;;;;5.60;2.33;;;18.40;99.90;;;;;;5060655;28;20178;-80
2022/04/26 14:51:26;;;;;;;4.45;2.42;;;18.60;99.90;;;;;;5076180;28;20045;-79
2022/04/26 14:53:52;;;;;;;8.70;2.60;;;18.90;99.90;;;;;;5077755;28;20048;-80
2022/04/26 14:56:18;;;;;;;5.85;2.30;;;19.00;99.90;;;;;;5077348;28;20056;-79
2022/04/26 14:58:43;;;;;;;4.35;2.03;;;19.20;99.90;;;;;;5077836;28;20037;-80
2022/04/26 15:01:10;;;;;;;3.08;1.83;;;19.10;99.40;;;;;;5075749;28;20067;-80
2022/04/26 15:03:36;;;;;;;5.35;2.10;;;19.40;99.60;;;;;;5080465;28;20518;-81
2022/04/26 15:06:02;;;;;;;4.40;2.00;;;19.60;99.10;;;;;;5063581;28;20072;-80
2022/04/26 15:11:12;;;;;;;3.55;2.00;;;19.80;98.50;;;;;;5067071;28;20044;-80
2022/04/26 15:16:37;;;;;;;3.75;2.13;;;20.60;97.10;;;;;;5067333;28;20052;-78
2022/04/26 15:19:07;;;;;;;4.72;1.90;;;20.50;96.80;;;;;;5081188;28;20090;-81
2022/04/26 15:21:33;;;;;;;4.03;2.22;;;20.30;97.00;;;;;;5062432;28;20114;-79
2022/04/26 15:23:59;;;;;;;4.57;2.08;;;19.70;96.40;;;;;;5093361;28;20040;-80
2022/04/26 15:26:25;;;;;;;3.78;2.17;;;19.00;95.80;;;;;;5099260;28;20047;-79
2022/04/26 15:28:55;;;;;;;2.72;2.00;;;18.50;95.90;;;;;;5064352;28;20052;-80
2022/04/26 15:31:21;;;;;;;4.38;2.10;;;18.80;95.90;;;;;;5062976;28;20485;-80
2022/04/26 15:33:48;;;;;;;4.65;1.90;;;19.40;96.20;;;;;;5047162;28;20051;-79
2022/04/26 15:36:18;;;;;;;3.92;2.03;;;20.10;96.10;;;;;;5051686;28;20051;-80
2022/04/26 15:38:45;;;;;;;2.90;1.83;;;20.90;95.40;;;;;;5062243;28;20051;-80
2022/04/26 15:41:12;;;;;;;4.05;2.45;;;21.30;94.90;;;;;;5081007;28;20032;-79
2022/04/26 15:43:39;;;;;;;3.85;1.90;;;21.30;95.00;;;;;;5061650;28;20089;-81
2022/04/26 15:46:08;;;;;;;3.55;2.08;;;21.40;94.70;;;;;;5080687;28;20051;-80
2022/04/26 15:48:37;;;;;;;4.38;2.13;;;21.40;93.60;;;;;;5079523;28;20040;-80
2022/04/26 15:51:04;;;;;;;4.07;2.30;;;21.60;93.50;;;;;;5079788;28;20527;-80
2022/04/26 15:53:30;;;;;;;6.35;2.45;;;21.90;93.30;;;;;;5063983;28;20052;-80
2022/04/26 15:55:56;;;;;;;4.20;2.45;;;22.20;93.20;;;;;;5061772;28;20553;-82
2022/04/26 15:58:22;;;;;;;5.90;2.30;;;22.20;93.00;;;;;;5080483;28;20131;-79
2022/04/26 16:00:47;;;;;;;6.88;2.47;;;21.80;92.80;;;;;;5062035;28;20040;-81
2022/04/26 16:03:13;;;;;;;5.18;2.17;;;21.50;92.80;;;;;;5064151;28;20079;-80
2022/04/26 16:05:41;;;;;;;4.32;2.22;;;21.60;92.70;;;;;;5061903;28;20058;-80
2022/04/26 16:08:07;;;;;;;3.92;2.45;;;21.80;92.60;;;;;;5064039;28;20494;-80
2022/04/26 16:21:46;;;;;;;2.47;1.95;;;22.00;91.00;;;;;;5020643;28;20054;-79
2022/04/26 16:24:12;;;;;;;3.88;2.38;;;22.10;91.00;;;;;;5072683;28;20131;-79
2022/04/26 16:26:39;;;;;;;5.30;2.28;;;22.40;90.30;;;;;;5077816;28;20044;-79
2022/04/26 16:29:07;;;;;;;5.78;2.45;;;22.10;89.20;;;;;;5080216;28;20052;-79
2022/04/26 16:31:33;;;;;;;3.35;2.10;;;22.20;89.00;;;;;;5062472;28;20429;-78
2022/04/26 16:34:01;;;;;;;3.55;2.00;;;22.00;88.60;;;;;;5079016;28;20059;-78
2022/04/26 16:36:28;;;;;;;4.30;2.10;;;22.10;88.40;;;;;;5080163;28;20127;-80
2022/04/26 16:38:55;;;;;;;4.13;2.40;;;22.00;87.20;;;;;;5077770;28;20049;-79
2022/04/26 16:41:21;;;;;;;4.57;2.22;;;21.60;86.90;;;;;;5047442;28;20392;-79
2022/04/26 16:43:48;;;;;;;4.68;2.20;;;21.10;86.80;;;;;;5078853;28;20492;-79
2022/04/26 16:46:19;;;;;;;5.18;2.13;;;20.40;87.10;;;;;;5076633;28;20123;-78
2022/04/26 16:48:48;;;;;;;4.60;2.50;;;19.40;87.20;;;;;;5079072;28;20048;-79
2022/04/26 16:51:15;;;;;;;2.83;1.92;;;18.70;88.80;;;;;;5078622;28;20122;-79
2022/04/26 16:53:42;;;;;;;5.20;2.10;;;18.20;89.70;;;;;;5063257;28;20052;-79
2022/04/26 16:56:08;;;;;;;4.68;2.13;;;18.10;89.90;;;;;;5077973;28;20240;-80
2022/04/26 16:58:34;;;;;;;3.83;2.50;;;18.20;90.30;;;;;;5063282;28;20064;-80
2022/04/26 17:01:00;;;;;;;5.28;2.22;;;18.00;90.30;;;;;;5061248;28;20041;-81
2022/04/26 17:03:26;;;;;;;3.30;2.10;;;17.80;90.20;;;;;;5079676;28;20524;-78
2022/04/26 17:05:52;;;;;;;3.20;1.90;;;17.80;90.50;;;;;;5061470;28;20147;-79
2022/04/26 17:08:19;;;;;;;3.30;2.10;;;17.60;90.20;;;;;;5062327;28;20056;-79
2022/04/26 17:10:46;;;;;;;3.88;2.22;;;17.50;90.50;;;;;;5079368;28;20072;-80
2022/04/26 17:13:12;;;;;;;3.72;1.88;;;17.30;90.40;;;;;;5078560;28;20048;-80
2022/04/26 17:15:39;;;;;;;3.40;2.10;;;16.90;90.40;;;;;;5069243;28;20044;-80